Time;durP1;ratioP1;P1;durP2;ratioP2;P2;SDS_P1;SDS_P2;PMS_P1;PMS_P2;Temp;Humidity;BMP_temperature;BMP_pressure;BME280_temperature;BME280_humidity;BME280_pressure;Samples;Min_cycle;Max_cycle;Signal;HPM_P1;HPM_P2
2023/01/28 00:01:12;;;;;;;1.30;1.20;;;1.80;97.30;;;;;;5027073;28;20454;-88
2023/01/28 00:03:38;;;;;;;1.10;1.00;;;1.70;97.30;;;;;;5034488;28;20436;-87
2023/01/28 00:06:10;;;;;;;1.10;1.00;;;1.70;97.30;;;;;;5033388;28;20426;-87
2023/01/28 00:08:36;;;;;;;4.57;1.63;;;1.70;97.30;;;;;;5034842;28;20411;-87
2023/01/28 00:11:04;;;;;;;1.10;1.00;;;1.70;97.30;;;;;;5033083;28;20441;-87
2023/01/28 00:13:30;;;;;;;1.20;1.10;;;1.70;97.30;;;;;;5031429;28;20220;-87
2023/01/28 00:15:57;;;;;;;2.67;1.90;;;1.70;97.30;;;;;;5018897;28;20428;-87
2023/01/28 00:18:24;;;;;;;1.20;1.10;;;1.70;97.30;;;;;;5030822;28;20427;-87
2023/01/28 00:21:04;;;;;;;1.10;1.00;;;1.70;97.30;;;;;;5034163;28;20467;-87
2023/01/28 00:23:32;;;;;;;1.10;1.00;;;1.70;97.30;;;;;;5026408;28;20542;-87
2023/01/28 00:26:03;;;;;;;1.67;1.30;;;1.70;97.30;;;;;;5033268;28;20458;-87
2023/01/28 00:28:29;;;;;;;1.10;1.00;;;1.70;97.30;;;;;;5021291;28;20419;-87
2023/01/28 00:30:54;;;;;;;1.60;1.50;;;1.70;97.30;;;;;;5027249;28;20458;-89
2023/01/28 00:33:20;;;;;;;1.20;1.10;;;1.70;97.30;;;;;;5025340;28;20287;-87
2023/01/28 00:35:45;;;;;;;1.13;1.03;;;1.70;97.30;;;;;;5014606;28;20200;-86
2023/01/28 00:38:11;;;;;;;1.53;1.43;;;1.70;97.30;;;;;;5014089;28;20859;-87
2023/01/28 00:40:37;;;;;;;1.63;1.53;;;1.70;97.30;;;;;;5013986;28;20200;-85
2023/01/28 00:43:02;;;;;;;1.40;1.30;;;1.70;97.30;;;;;;5014426;28;20197;-87
2023/01/28 00:45:28;;;;;;;2.07;1.93;;;1.70;97.30;;;;;;5014570;28;20639;-87
2023/01/28 00:47:53;;;;;;;1.00;0.90;;;1.70;97.30;;;;;;5014191;28;20191;-87
2023/01/28 00:50:20;;;;;;;1.63;1.53;;;1.70;97.30;;;;;;5014082;28;20247;-87
2023/01/28 00:52:46;;;;;;;1.40;1.30;;;1.70;97.30;;;;;;5015008;28;20227;-87
2023/01/28 00:55:11;;;;;;;1.73;1.73;;;1.70;97.30;;;;;;5013970;28;20413;-86
2023/01/28 00:57:37;;;;;;;28.73;3.00;;;1.70;97.30;;;;;;5013961;28;20487;-85
2023/01/28 01:00:04;;;;;;;1.17;1.10;;;1.70;97.30;;;;;;5013944;28;20177;-85
2023/01/28 01:02:30;;;;;;;1.20;1.10;;;1.60;97.30;;;;;;5014118;28;20196;-87
2023/01/28 01:04:58;;;;;;;8.13;1.93;;;1.60;97.30;;;;;;5014135;28;20436;-87
2023/01/28 01:07:33;;;;;;;1.70;1.60;;;1.60;97.30;;;;;;5014342;28;20416;-85
2023/01/28 01:10:03;;;;;;;1.20;1.10;;;1.60;97.30;;;;;;5014001;28;20483;-86
2023/01/28 01:12:28;;;;;;;1.70;1.60;;;1.60;97.30;;;;;;5014739;28;20423;-90
2023/01/28 01:14:54;;;;;;;1.73;1.63;;;1.60;97.30;;;;;;5014017;28;20467;-85
2023/01/28 01:17:20;;;;;;;1.10;1.00;;;1.60;97.30;;;;;;5014259;28;20434;-87
2023/01/28 01:19:46;;;;;;;1.13;1.03;;;1.60;97.30;;;;;;5014234;28;20447;-87
2023/01/28 01:22:11;;;;;;;1.77;1.73;;;1.60;97.30;;;;;;5013792;28;20699;-85
2023/01/28 01:24:37;;;;;;;1.10;1.00;;;1.60;97.30;;;;;;5014234;28;20261;-86
2023/01/28 01:27:04;;;;;;;1.20;1.10;;;1.50;97.30;;;;;;5013983;28;20267;-85
2023/01/28 01:29:30;;;;;;;1.93;1.83;;;1.50;97.30;;;;;;5014987;28;20204;-86
2023/01/28 01:31:55;;;;;;;1.20;1.10;;;1.50;97.30;;;;;;5015042;28;20519;-87
2023/01/28 01:34:21;;;;;;;1.40;1.30;;;1.50;97.30;;;;;;5022248;28;20193;-90
2023/01/28 01:36:47;;;;;;;1.10;1.00;;;1.50;97.30;;;;;;5035575;28;20185;-89
2023/01/28 01:39:12;;;;;;;1.77;1.67;;;1.50;97.30;;;;;;5047212;28;20196;-86
2023/01/28 01:41:38;;;;;;;12.13;1.60;;;1.40;97.30;;;;;;5044372;28;20196;-87
2023/01/28 01:44:05;;;;;;;0.90;0.80;;;1.40;97.30;;;;;;5033284;28;20283;-87
2023/01/28 01:46:50;;;;;;;1.80;1.70;;;1.50;97.30;;;;;;5033513;28;20176;-86
2023/01/28 01:49:18;;;;;;;1.20;1.10;;;1.40;97.30;;;;;;5031956;28;20410;-87
2023/01/28 01:51:47;;;;;;;1.50;1.40;;;1.40;97.30;;;;;;5033120;28;20434;-86
2023/01/28 01:54:14;;;;;;;1.00;0.90;;;1.40;97.30;;;;;;5032975;28;21030;-85
2023/01/28 01:56:42;;;;;;;1.53;1.37;;;1.40;97.30;;;;;;5033285;28;20431;-85
2023/01/28 01:59:11;;;;;;;1.20;1.10;;;1.40;97.30;;;;;;5032956;28;20425;-88
2023/01/28 02:01:44;;;;;;;1.43;1.33;;;1.40;97.30;;;;;;5033365;28;20458;-87
2023/01/28 02:10:43;;;;;;;1.10;1.00;;;1.40;97.30;;;;;;5013126;28;20455;-87
2023/01/28 02:14:11;;;;;;;1.20;1.10;;;1.30;97.30;;;;;;5032492;28;20471;-86
2023/01/28 02:16:12;;;;;;;1.10;1.00;;;1.30;97.30;;;;;;5026640;28;20450;-86
2023/01/28 02:18:52;;;;;;;16.80;2.00;;;1.30;97.30;;;;;;5033672;28;20423;-87
2023/01/28 02:22:17;;;;;;;2.10;1.60;;;1.30;97.30;;;;;;5034442;28;20532;-87
2023/01/28 02:25:22;;;;;;;7.40;1.50;;;1.30;97.30;;;;;;5012065;28;20444;-86
2023/01/28 02:28:34;;;;;;;;;;;;;;;;;;;;;
2023/01/28 02:31:56;;;;;;;;;;;;;;;;;;;;;
2023/01/28 02:34:53;;;;;;;2.90;2.70;;;1.20;97.30;;;;;;5011879;28;20998;-88
2023/01/28 02:41:16;;;;;;;;;;;;;;;;;;;;;
2023/01/28 02:44:13;;;;;;;1.30;1.20;;;1.20;97.30;;;;;;5033751;28;20449;-87
2023/01/28 02:49:55;;;;;;;1.00;0.90;;;1.20;97.30;;;;;;5034536;28;20391;-87
2023/01/28 02:59:41;;;;;;;1.23;1.13;;;1.20;97.30;;;;;;5028365;28;20521;-86
2023/01/28 03:02:53;;;;;;;2.10;1.77;;;1.10;97.30;;;;;;5036918;28;20458;-88
2023/01/28 03:06:02;;;;;;;5.13;4.00;;;1.10;97.30;;;;;;5036897;28;20419;-86
2023/01/28 03:38:22;;;;;;;1.20;1.10;;;1.00;97.30;;;;;;5037306;28;20444;-86
2023/01/28 03:41:05;;;;;;;1.20;1.17;;;1.00;97.30;;;;;;5035262;28;20450;-86
2023/01/28 03:43:31;;;;;;;1.97;1.87;;;1.00;97.30;;;;;;5035255;28;20443;-85
2023/01/28 03:45:57;;;;;;;1.30;1.20;;;1.00;97.30;;;;;;5035418;28;20408;-86
2023/01/28 03:48:25;;;;;;;1.10;1.00;;;1.00;97.30;;;;;;5035446;28;20179;-87
2023/01/28 03:50:51;;;;;;;1.10;1.00;;;1.00;97.30;;;;;;5035000;28;20173;-86
2023/01/28 03:53:18;;;;;;;1.10;1.00;;;1.00;97.30;;;;;;5035448;28;20438;-86
2023/01/28 03:55:45;;;;;;;1.20;1.10;;;1.00;97.30;;;;;;5036547;28;20457;-86
2023/01/28 03:58:12;;;;;;;1.10;1.00;;;1.00;97.30;;;;;;5035319;28;20790;-86
2023/01/28 04:00:42;;;;;;;1.30;1.20;;;1.00;97.30;;;;;;5035144;28;20418;-86
2023/01/28 04:03:17;;;;;;;1.00;0.90;;;0.90;97.30;;;;;;5036117;28;20466;-86
2023/01/28 04:05:57;;;;;;;4.83;1.47;;;0.90;97.30;;;;;;5034930;28;20407;-88
2023/01/28 04:08:23;;;;;;;0.90;0.80;;;0.90;97.30;;;;;;5034959;28;20415;-87
2023/01/28 04:10:49;;;;;;;0.97;0.87;;;0.90;97.30;;;;;;5021037;28;20438;-87
2023/01/28 04:13:14;;;;;;;1.30;1.20;;;0.90;97.30;;;;;;5014147;28;20553;-87
2023/01/28 04:15:42;;;;;;;1.10;1.00;;;0.90;97.30;;;;;;5015441;28;20180;-87
2023/01/28 04:18:08;;;;;;;1.00;0.90;;;0.90;97.30;;;;;;5015970;28;20174;-88
2023/01/28 04:20:33;;;;;;;1.00;0.90;;;0.90;97.30;;;;;;5016266;28;20482;-86
2023/01/28 04:22:59;;;;;;;1.10;1.10;;;0.90;97.30;;;;;;5015598;28;20987;-84
2023/01/28 04:25:24;;;;;;;2.07;1.90;;;0.90;97.30;;;;;;5016088;28;20192;-83
2023/01/28 04:27:50;;;;;;;3.63;1.83;;;0.90;97.30;;;;;;5015456;28;20196;-87
2023/01/28 04:30:16;;;;;;;1.57;1.47;;;0.90;97.30;;;;;;5014769;28;20169;-86
2023/01/28 04:32:41;;;;;;;1.97;1.87;;;0.90;97.30;;;;;;5014821;28;20181;-86
2023/01/28 04:35:07;;;;;;;1.70;1.60;;;0.90;97.30;;;;;;5015008;28;20201;-86
2023/01/28 04:37:32;;;;;;;2.73;2.53;;;0.90;97.30;;;;;;5024388;28;20205;-92
2023/01/28 04:39:58;;;;;;;1.30;1.20;;;0.90;97.30;;;;;;5034949;28;20178;-88
2023/01/28 04:42:23;;;;;;;1.10;1.00;;;0.90;97.30;;;;;;5035191;28;20200;-89
2023/01/28 04:44:49;;;;;;;1.20;1.10;;;0.90;97.30;;;;;;5018216;28;20205;-88
2023/01/28 04:47:14;;;;;;;1.10;1.00;;;0.90;97.30;;;;;;5014369;28;20183;-84
2023/01/28 04:49:40;;;;;;;1.60;1.50;;;0.90;97.30;;;;;;5017584;28;20178;-87
2023/01/28 04:52:05;;;;;;;2.53;1.37;;;0.80;97.30;;;;;;5033584;28;20182;-88
2023/01/28 04:54:31;;;;;;;2.47;2.27;;;0.80;97.30;;;;;;5033784;28;20265;-90
2023/01/28 04:56:56;;;;;;;1.83;1.70;;;0.80;97.30;;;;;;5034871;28;20184;-92
2023/01/28 04:59:22;;;;;;;1.20;1.10;;;0.80;97.30;;;;;;5035064;28;20188;-87
2023/01/28 05:01:48;;;;;;;1.67;1.57;;;0.80;97.30;;;;;;5033950;28;20390;-87
2023/01/28 05:04:15;;;;;;;1.30;1.20;;;0.80;97.30;;;;;;5034756;28;20444;-88
2023/01/28 05:06:40;;;;;;;1.30;1.20;;;0.80;97.30;;;;;;5035454;28;20161;-88
2023/01/28 05:09:06;;;;;;;1.03;0.93;;;0.80;97.30;;;;;;5034573;28;20427;-86
2023/01/28 05:11:31;;;;;;;3.27;3.10;;;0.80;97.30;;;;;;5034674;28;20181;-88
2023/01/28 05:13:57;;;;;;;4.10;1.53;;;0.80;97.30;;;;;;5070648;22;20258;-86
2023/01/28 05:16:22;;;;;;;1.10;1.00;;;0.80;97.30;;;;;;5101912;28;20178;-87
2023/01/28 05:18:50;;;;;;;1.30;1.27;;;0.70;97.30;;;;;;5079449;28;20273;-85
2023/01/28 05:21:16;;;;;;;1.30;1.20;;;0.70;97.30;;;;;;5075282;28;20228;-85
2023/01/28 05:23:41;;;;;;;1.30;1.20;;;0.70;97.30;;;;;;5092145;28;20429;-85
2023/01/28 05:26:07;;;;;;;1.20;1.10;;;0.70;97.30;;;;;;5075079;28;20446;-85
2023/01/28 05:28:32;;;;;;;1.87;1.30;;;0.70;97.30;;;;;;5075196;28;20178;-86
2023/01/28 05:31:03;;;;;;;6.20;2.30;;;0.70;97.30;;;;;;5075266;28;20733;-86
2023/01/28 05:33:28;;;;;;;1.57;1.47;;;0.70;97.30;;;;;;5075383;28;20277;-85
2023/01/28 05:35:54;;;;;;;1.20;1.10;;;0.70;97.30;;;;;;5054546;28;20521;-85
2023/01/28 05:38:19;;;;;;;1.03;0.93;;;0.70;97.30;;;;;;5051580;28;20190;-85
2023/01/28 05:40:46;;;;;;;1.50;1.40;;;0.70;97.30;;;;;;5051396;28;20231;-85
2023/01/28 05:43:12;;;;;;;1.47;1.20;;;0.70;97.30;;;;;;5051967;28;20176;-85
2023/01/28 05:45:37;;;;;;;1.30;1.20;;;0.70;97.30;;;;;;5051612;28;20445;-85
2023/01/28 05:48:03;;;;;;;1.53;1.10;;;0.70;97.30;;;;;;5051848;28;20554;-85
2023/01/28 05:50:29;;;;;;;1.30;1.20;;;0.70;97.30;;;;;;5051524;28;20618;-85
2023/01/28 05:52:54;;;;;;;1.07;0.97;;;0.70;97.30;;;;;;5053021;28;20211;-85
2023/01/28 05:55:19;;;;;;;1.20;1.10;;;0.70;97.30;;;;;;5051864;28;20204;-87
2023/01/28 05:57:45;;;;;;;1.10;1.00;;;0.70;97.30;;;;;;5051801;28;20184;-85
2023/01/28 06:00:29;;;;;;;1.40;1.30;;;0.60;97.30;;;;;;5051482;28;20180;-85
2023/01/28 06:02:54;;;;;;;1.13;1.03;;;0.60;97.30;;;;;;5051422;28;20199;-85
2023/01/28 06:05:20;;;;;;;2.10;1.97;;;0.60;97.30;;;;;;5052643;28;20495;-84
2023/01/28 06:07:47;;;;;;;1.97;1.87;;;0.60;97.30;;;;;;5051399;28;20175;-86
2023/01/28 06:10:16;;;;;;;2.13;1.93;;;0.50;97.30;;;;;;5051312;28;20287;-85
2023/01/28 06:12:43;;;;;;;3.83;1.43;;;0.50;97.30;;;;;;5051719;28;20418;-85
2023/01/28 06:15:09;;;;;;;1.30;1.20;;;0.50;97.30;;;;;;5051470;28;20972;-85
2023/01/28 06:17:34;;;;;;;6.13;1.87;;;0.50;97.30;;;;;;5051119;28;20469;-85
2023/01/28 06:20:00;;;;;;;1.90;1.53;;;0.50;97.30;;;;;;5052552;28;20465;-85
2023/01/28 06:22:25;;;;;;;1.33;1.23;;;0.60;97.30;;;;;;5051400;28;20208;-85
2023/01/28 06:24:51;;;;;;;2.77;2.30;;;0.50;97.30;;;;;;5053754;28;20709;-83
2023/01/28 06:27:17;;;;;;;1.50;1.40;;;0.60;97.30;;;;;;5050773;28;20183;-85
2023/01/28 06:29:42;;;;;;;1.70;1.60;;;0.60;97.30;;;;;;5040114;28;20207;-87
2023/01/28 06:32:08;;;;;;;2.43;1.47;;;0.60;97.30;;;;;;5051872;28;20271;-88
2023/01/28 06:34:33;;;;;;;1.60;1.50;;;0.60;97.30;;;;;;5037801;28;20286;-87
2023/01/28 06:36:59;;;;;;;5.33;2.90;;;0.60;97.30;;;;;;5043012;28;20187;-87
2023/01/28 06:39:25;;;;;;;1.77;1.67;;;0.60;97.30;;;;;;5043528;28;20265;-86
2023/01/28 06:41:51;;;;;;;1.00;0.90;;;0.60;97.30;;;;;;5046207;28;20282;-87
2023/01/28 06:44:17;;;;;;;1.60;1.50;;;0.60;97.30;;;;;;5042952;28;20567;-86
2023/01/28 06:46:42;;;;;;;4.43;2.70;;;0.60;97.30;;;;;;5042886;28;20313;-87
2023/01/28 06:49:08;;;;;;;1.57;1.50;;;0.70;97.30;;;;;;5050609;28;20190;-87
2023/01/28 06:51:33;;;;;;;2.50;1.10;;;0.70;97.30;;;;;;5071550;28;20262;-84
2023/01/28 06:53:59;;;;;;;2.83;2.67;;;0.60;97.30;;;;;;5052527;28;20195;-88
2023/01/28 06:56:24;;;;;;;1.10;1.00;;;0.70;97.30;;;;;;5033821;28;20247;-87
2023/01/28 06:58:50;;;;;;;1.33;1.00;;;0.60;97.30;;;;;;5034613;28;20183;-84
2023/01/28 07:01:16;;;;;;;1.57;1.47;;;0.60;97.30;;;;;;5041408;28;20728;-87
2023/01/28 07:03:42;;;;;;;1.40;1.30;;;0.70;97.30;;;;;;5071829;28;20673;-87
2023/01/28 07:06:07;;;;;;;1.10;1.00;;;0.70;97.30;;;;;;5068646;28;20458;-87
2023/01/28 07:08:33;;;;;;;1.40;1.33;;;0.60;97.30;;;;;;5073882;28;20611;-87
2023/01/28 07:10:59;;;;;;;1.10;1.00;;;0.70;97.30;;;;;;5073928;28;20175;-86
2023/01/28 07:13:24;;;;;;;2.73;1.67;;;0.70;97.30;;;;;;5075039;28;20677;-87
2023/01/28 07:15:50;;;;;;;1.50;1.40;;;0.90;97.30;;;;;;5074004;28;20432;-87
2023/01/28 07:18:16;;;;;;;2.40;1.80;;;1.30;97.30;;;;;;5073830;28;20171;-86
2023/01/28 07:20:41;;;;;;;3.13;1.33;;;1.60;97.30;;;;;;5073749;28;20752;-86
2023/01/28 07:23:07;;;;;;;1.97;1.87;;;1.80;97.30;;;;;;5074257;28;20163;-87
2023/01/28 07:25:32;;;;;;;1.30;1.20;;;1.90;97.30;;;;;;5091857;28;20232;-88
2023/01/28 07:27:58;;;;;;;3.17;1.50;;;1.80;97.30;;;;;;5073805;28;20175;-86
2023/01/28 07:30:23;;;;;;;17.03;2.47;;;1.70;97.30;;;;;;5073849;28;20178;-87
2023/01/28 07:32:54;;;;;;;1.53;1.43;;;1.50;97.30;;;;;;5073737;28;20277;-87
2023/01/28 07:35:20;;;;;;;5.53;3.13;;;1.40;97.30;;;;;;5073850;28;20205;-87
2023/01/28 07:37:56;;;;;;;1.30;1.20;;;1.30;97.30;;;;;;5091794;28;20408;-86
2023/01/28 07:40:23;;;;;;;1.10;1.00;;;1.20;97.30;;;;;;5073790;28;20174;-88
2023/01/28 07:42:48;;;;;;;1.03;0.93;;;1.10;97.30;;;;;;5073496;28;20457;-88
2023/01/28 07:45:14;;;;;;;1.30;1.20;;;1.10;97.30;;;;;;5073641;28;20440;-89
2023/01/28 07:47:40;;;;;;;3.83;3.63;;;1.00;97.30;;;;;;5058237;28;20178;-88
2023/01/28 07:50:06;;;;;;;3.73;3.53;;;0.90;97.30;;;;;;5053919;28;20865;-88
2023/01/28 07:52:37;;;;;;;1.37;1.27;;;0.80;97.30;;;;;;5045939;28;20203;-88
2023/01/28 07:55:03;;;;;;;1.20;1.10;;;0.70;97.30;;;;;;5037079;28;20438;-88
2023/01/28 07:57:29;;;;;;;1.47;1.37;;;0.70;97.30;;;;;;5049632;28;20790;-88
2023/01/28 07:59:54;;;;;;;1.57;1.27;;;0.70;97.30;;;;;;5056750;28;20588;-88
2023/01/28 08:02:20;;;;;;;1.47;1.43;;;0.70;97.30;;;;;;5056709;28;20206;-87
2023/01/28 08:04:46;;;;;;;1.13;1.03;;;0.60;97.30;;;;;;5057562;28;20203;-87
2023/01/28 08:07:11;;;;;;;1.63;1.53;;;0.60;97.30;;;;;;5057735;28;20255;-88
2023/01/28 08:09:37;;;;;;;1.10;1.00;;;0.60;97.30;;;;;;5058752;28;20416;-88
2023/01/28 08:12:03;;;;;;;1.20;1.10;;;0.60;97.30;;;;;;5064628;28;20160;-87
2023/01/28 08:14:28;;;;;;;1.57;1.43;;;0.60;97.30;;;;;;5068123;28;20247;-89
2023/01/28 08:16:54;;;;;;;1.00;0.90;;;0.60;97.30;;;;;;5074881;28;20641;-88
2023/01/28 08:19:20;;;;;;;1.10;1.00;;;0.60;97.30;;;;;;5052348;28;20219;-89
2023/01/28 08:21:49;;;;;;;1.10;1.00;;;0.60;97.30;;;;;;5054660;28;20199;-88
2023/01/28 08:24:15;;;;;;;1.20;1.10;;;0.60;97.30;;;;;;5053242;28;20438;-88
2023/01/28 08:26:41;;;;;;;0.90;0.80;;;0.60;97.30;;;;;;5052986;28;21071;-87
2023/01/28 08:29:06;;;;;;;1.07;0.97;;;0.60;97.30;;;;;;5053052;28;20498;-87
2023/01/28 08:31:32;;;;;;;1.20;1.10;;;0.60;97.30;;;;;;5052920;28;20639;-87
2023/01/28 08:33:57;;;;;;;1.50;1.40;;;0.60;97.30;;;;;;5052844;28;20200;-88
2023/01/28 08:36:23;;;;;;;1.87;1.63;;;0.60;97.30;;;;;;5052942;28;20704;-88
2023/01/28 08:38:53;;;;;;;1.00;0.90;;;0.60;97.30;;;;;;5052921;28;20188;-87
2023/01/28 08:41:21;;;;;;;1.10;1.00;;;0.60;97.30;;;;;;5052794;28;20877;-88
2023/01/28 08:43:47;;;;;;;1.27;1.17;;;0.60;97.30;;;;;;5052661;28;20972;-88
2023/01/28 08:46:12;;;;;;;1.10;1.00;;;0.50;97.30;;;;;;5052669;28;20419;-88
2023/01/28 08:48:38;;;;;;;1.13;1.03;;;0.60;97.30;;;;;;5053122;28;20270;-87
2023/01/28 08:51:03;;;;;;;1.50;1.40;;;0.50;97.30;;;;;;5053448;28;20549;-88
2023/01/28 08:53:29;;;;;;;1.27;1.17;;;0.50;97.30;;;;;;5054122;28;20211;-86
2023/01/28 08:55:54;;;;;;;0.93;0.83;;;0.50;97.30;;;;;;5051681;28;20249;-87
2023/01/28 08:58:20;;;;;;;1.10;1.00;;;0.60;97.30;;;;;;5051840;28;20225;-87
2023/01/28 09:00:46;;;;;;;1.20;1.10;;;0.60;97.30;;;;;;5053761;28;20180;-87
2023/01/28 09:03:12;;;;;;;1.33;1.23;;;0.60;97.30;;;;;;5052747;28;20168;-87
2023/01/28 09:05:38;;;;;;;1.20;1.10;;;0.60;97.30;;;;;;5054931;28;20424;-87
2023/01/28 09:08:09;;;;;;;1.10;1.00;;;0.60;97.30;;;;;;5053930;28;20186;-88
2023/01/28 09:10:36;;;;;;;1.10;1.00;;;0.60;97.30;;;;;;5054054;28;20468;-87
2023/01/28 09:13:10;;;;;;;1.10;1.00;;;0.70;97.30;;;;;;5053774;28;20950;-87
2023/01/28 09:15:36;;;;;;;1.13;1.03;;;0.60;97.30;;;;;;5053714;28;20560;-88
2023/01/28 09:18:02;;;;;;;1.10;1.00;;;0.70;97.30;;;;;;5053470;28;20502;-87
2023/01/28 09:20:28;;;;;;;0.90;0.80;;;0.60;97.30;;;;;;5053025;28;20924;-87
2023/01/28 09:22:53;;;;;;;1.30;1.13;;;0.60;97.30;;;;;;5052098;28;20454;-87
2023/01/28 09:25:19;;;;;;;1.30;1.20;;;0.70;97.30;;;;;;5051236;28;20215;-87
2023/01/28 09:27:44;;;;;;;1.10;1.00;;;0.70;97.30;;;;;;5052912;28;20212;-87
2023/01/28 09:30:12;;;;;;;1.23;1.20;;;0.70;97.30;;;;;;5051619;28;20178;-87
2023/01/28 09:32:38;;;;;;;1.87;1.77;;;0.70;97.30;;;;;;5051632;28;20187;-87
2023/01/28 09:35:04;;;;;;;1.97;1.23;;;0.70;97.30;;;;;;5054800;28;20499;-87
2023/01/28 09:37:29;;;;;;;1.10;1.00;;;0.80;97.30;;;;;;5054556;28;20179;-86
2023/01/28 09:39:55;;;;;;;1.10;1.00;;;0.80;97.30;;;;;;5051799;28;20484;-87
2023/01/28 09:42:40;;;;;;;0.90;0.80;;;0.80;97.30;;;;;;5051770;28;20196;-87
2023/01/28 09:45:15;;;;;;;1.00;0.90;;;0.80;97.30;;;;;;5052427;28;21087;-87
2023/01/28 09:47:59;;;;;;;3.90;2.90;;;0.90;97.30;;;;;;5034967;28;20418;-87
2023/01/28 09:50:35;;;;;;;6.00;1.40;;;0.90;97.30;;;;;;5052490;28;20475;-87
2023/01/28 09:53:14;;;;;;;1.10;1.00;;;0.90;97.30;;;;;;5034758;28;20501;-87
2023/01/28 09:55:47;;;;;;;3.30;1.60;;;0.90;97.30;;;;;;5034797;28;20472;-87
2023/01/28 09:58:16;;;;;;;1.37;1.27;;;0.90;97.30;;;;;;5034707;28;20414;-87
2023/01/28 10:01:06;;;;;;;1.20;1.10;;;0.90;97.30;;;;;;5034425;28;20928;-87
2023/01/28 10:03:53;;;;;;;1.37;1.00;;;0.90;97.30;;;;;;5034687;28;21114;-87
2023/01/28 10:06:44;;;;;;;1.97;1.83;;;0.90;97.30;;;;;;5034975;28;20430;-87
2023/01/28 10:09:41;;;;;;;1.00;0.90;;;0.90;97.30;;;;;;5035355;28;20454;-87
2023/01/28 10:12:47;;;;;;;2.57;1.30;;;0.90;97.30;;;;;;5035517;28;20411;-88
2023/01/28 10:15:49;;;;;;;2.27;2.10;;;0.90;97.30;;;;;;5035380;28;20465;-87
2023/01/28 10:18:49;;;;;;;1.20;1.10;;;1.00;97.30;;;;;;5035082;28;20441;-87
2023/01/28 10:21:28;;;;;;;1.00;0.90;;;1.00;97.30;;;;;;5022002;28;20525;-86
2023/01/28 10:24:28;;;;;;;1.73;1.20;;;1.00;97.30;;;;;;5034841;28;20594;-87
2023/01/28 10:26:55;;;;;;;1.30;1.20;;;1.00;97.30;;;;;;5034947;28;20521;-86
2023/01/28 10:29:39;;;;;;;2.70;1.50;;;1.00;97.30;;;;;;5035016;28;20422;-88
2023/01/28 10:32:40;;;;;;;1.30;1.20;;;1.00;97.30;;;;;;5035416;28;20928;-87
2023/01/28 10:35:06;;;;;;;22.33;1.40;;;1.10;97.30;;;;;;5034566;28;20441;-87
2023/01/28 10:37:38;;;;;;;1.10;1.00;;;1.10;97.30;;;;;;5034248;28;20426;-87
2023/01/28 10:40:04;;;;;;;1.07;0.97;;;1.10;97.30;;;;;;5052206;28;20180;-87
2023/01/28 10:42:36;;;;;;;2.57;1.63;;;1.10;97.30;;;;;;5033992;28;20466;-87
2023/01/28 10:45:13;;;;;;;1.20;1.07;;;1.10;97.30;;;;;;5034158;28;20450;-87
2023/01/28 10:47:45;;;;;;;1.20;1.10;;;1.20;97.30;;;;;;5034204;28;20418;-87
2023/01/28 10:50:17;;;;;;;2.90;2.70;;;1.20;97.30;;;;;;5034214;28;20422;-88
2023/01/28 10:52:59;;;;;;;1.03;0.93;;;1.30;97.30;;;;;;5034516;28;20422;-87
2023/01/28 10:55:35;;;;;;;1.40;1.30;;;1.30;97.30;;;;;;5033946;28;20533;-87
2023/01/28 10:58:04;;;;;;;1.23;1.13;;;1.20;96.70;;;;;;5035062;28;20452;-88
2023/01/28 11:00:34;;;;;;;11.83;1.43;;;1.20;96.30;;;;;;5033199;28;20440;-87
2023/01/28 11:02:59;;;;;;;1.23;1.13;;;1.30;96.60;;;;;;5051709;28;20450;-87
2023/01/28 11:05:30;;;;;;;2.30;1.90;;;1.30;96.90;;;;;;5052011;28;20802;-88
2023/01/28 11:08:13;;;;;;;1.60;1.50;;;1.30;97.10;;;;;;5034135;28;20172;-88
2023/01/28 11:10:39;;;;;;;1.10;1.00;;;1.30;97.30;;;;;;5051484;28;20410;-87
2023/01/28 11:13:13;;;;;;;1.27;1.17;;;1.40;97.30;;;;;;5034475;28;20430;-87
2023/01/28 11:15:46;;;;;;;1.20;1.10;;;1.40;97.30;;;;;;5097628;22;20491;-87
2023/01/28 11:18:23;;;;;;;1.47;1.37;;;1.40;96.90;;;;;;5079554;28;20421;-87
2023/01/28 11:20:53;;;;;;;16.83;1.53;;;1.40;97.20;;;;;;5075384;28;20456;-88
2023/01/28 11:23:30;;;;;;;2.37;1.50;;;1.40;97.10;;;;;;5078434;28;20503;-87
2023/01/28 11:26:18;;;;;;;1.00;0.90;;;1.40;97.00;;;;;;5078018;28;20440;-88
2023/01/28 11:28:44;;;;;;;1.43;1.40;;;1.40;96.90;;;;;;5078562;28;20455;-87
2023/01/28 11:31:13;;;;;;;0.90;0.80;;;1.40;96.90;;;;;;5077880;28;20452;-87
2023/01/28 11:33:46;;;;;;;1.23;1.13;;;1.40;96.80;;;;;;5078352;28;20514;-87
2023/01/28 11:36:22;;;;;;;1.33;1.23;;;1.40;96.70;;;;;;5077822;28;21027;-87
2023/01/28 11:38:56;;;;;;;1.10;1.00;;;1.40;97.10;;;;;;5095911;28;20845;-87
2023/01/28 11:41:39;;;;;;;1.10;1.00;;;1.40;97.30;;;;;;5079736;28;20488;-87
2023/01/28 11:44:21;;;;;;;1.20;1.10;;;1.40;97.30;;;;;;5079863;28;20444;-87
2023/01/28 11:47:09;;;;;;;1.10;1.00;;;1.50;97.30;;;;;;5079823;28;20527;-88
2023/01/28 11:50:04;;;;;;;1.17;1.07;;;1.40;97.30;;;;;;5079076;28;20423;-87
2023/01/28 11:53:07;;;;;;;1.23;1.13;;;1.40;97.30;;;;;;5078733;28;20506;-87
2023/01/28 11:56:06;;;;;;;1.33;1.23;;;1.40;97.30;;;;;;5077212;28;20436;-86
2023/01/28 11:59:17;;;;;;;1.37;1.30;;;1.40;97.30;;;;;;5077246;28;20413;-87
2023/01/28 12:01:52;;;;;;;1.37;1.10;;;1.30;97.30;;;;;;5077640;28;20448;-88
2023/01/28 12:04:35;;;;;;;1.10;1.00;;;1.30;97.30;;;;;;5077254;28;20420;-87
2023/01/28 12:07:38;;;;;;;2.63;1.83;;;1.30;97.30;;;;;;5095854;28;20385;-86
2023/01/28 12:10:23;;;;;;;1.57;1.47;;;1.30;97.30;;;;;;5076918;28;21067;-87
2023/01/28 12:13:02;;;;;;;1.63;1.53;;;1.30;97.30;;;;;;5077744;28;20413;-87
2023/01/28 12:15:46;;;;;;;1.13;1.03;;;1.30;97.30;;;;;;5077543;28;20471;-86
2023/01/28 12:18:26;;;;;;;1.20;1.10;;;1.30;97.30;;;;;;5063144;28;20464;-88
2023/01/28 12:21:07;;;;;;;1.17;1.07;;;1.30;97.30;;;;;;5057128;28;20420;-87
2023/01/28 12:24:01;;;;;;;1.73;1.63;;;1.30;97.30;;;;;;5055989;28;20417;-86
2023/01/28 12:26:57;;;;;;;1.70;1.60;;;1.30;97.30;;;;;;5038943;28;20579;-87
2023/01/28 12:29:34;;;;;;;1.70;1.60;;;1.20;97.30;;;;;;5056822;28;20966;-87
2023/01/28 12:32:42;;;;;;;1.10;1.00;;;1.20;97.30;;;;;;5056837;28;20409;-86
2023/01/28 12:35:23;;;;;;;4.87;2.03;;;1.20;97.30;;;;;;5057123;28;20829;-87
2023/01/28 12:37:57;;;;;;;1.57;1.47;;;1.30;97.30;;;;;;5057210;28;20420;-86
2023/01/28 12:40:58;;;;;;;3.43;3.23;;;1.20;97.30;;;;;;5061226;28;20413;-88
2023/01/28 12:43:48;;;;;;;1.80;1.70;;;1.30;97.30;;;;;;5068721;28;20474;-87
2023/01/28 12:46:34;;;;;;;1.30;1.20;;;1.30;97.30;;;;;;5064613;28;20495;-86
2023/01/28 12:49:18;;;;;;;1.20;1.10;;;1.20;96.90;;;;;;5056480;28;20409;-87
2023/01/28 12:51:58;;;;;;;2.37;2.17;;;1.20;96.80;;;;;;5055930;28;20425;-86
2023/01/28 12:54:43;;;;;;;1.40;1.30;;;1.20;96.60;;;;;;5057328;28;20456;-87
2023/01/28 12:57:25;;;;;;;1.50;1.40;;;1.20;96.80;;;;;;5056047;28;20410;-87
2023/01/28 12:59:58;;;;;;;1.53;1.50;;;1.20;96.60;;;;;;5056072;28;20402;-87
2023/01/28 13:02:31;;;;;;;1.20;1.10;;;1.20;96.40;;;;;;5056728;28;20459;-86
2023/01/28 13:05:12;;;;;;;1.13;1.03;;;1.20;96.60;;;;;;5056308;28;20438;-87
2023/01/28 13:07:44;;;;;;;2.57;2.07;;;1.20;96.50;;;;;;5056810;28;20417;-87
2023/01/28 13:10:15;;;;;;;2.30;1.83;;;1.20;96.80;;;;;;5056045;28;20410;-87
2023/01/28 13:12:42;;;;;;;3.23;1.87;;;1.20;96.30;;;;;;5055939;28;20422;-87
2023/01/28 13:15:16;;;;;;;1.07;0.97;;;1.20;96.20;;;;;;5073817;28;20453;-87
2023/01/28 13:18:00;;;;;;;1.77;1.57;;;1.20;96.70;;;;;;5055500;28;20429;-87
2023/01/28 13:20:49;;;;;;;2.07;1.93;;;1.20;96.30;;;;;;5055866;28;20497;-87
2023/01/28 13:23:29;;;;;;;3.37;1.77;;;1.20;96.00;;;;;;5055483;28;20471;-87
2023/01/28 13:25:55;;;;;;;2.10;1.97;;;1.30;96.00;;;;;;5055590;28;20421;-87
2023/01/28 13:28:38;;;;;;;6.63;3.10;;;1.30;96.30;;;;;;5056004;28;20458;-87
2023/01/28 13:31:07;;;;;;;1.10;1.00;;;1.20;96.20;;;;;;5055160;28;20182;-87
2023/01/28 13:33:36;;;;;;;6.53;1.93;;;1.20;96.00;;;;;;5055716;28;20425;-86
2023/01/28 13:36:16;;;;;;;1.93;1.83;;;1.20;96.60;;;;;;5039231;28;20430;-87
2023/01/28 13:38:44;;;;;;;3.13;3.00;;;1.20;96.10;;;;;;5051709;28;20411;-86
2023/01/28 13:41:09;;;;;;;1.80;1.70;;;1.20;95.90;;;;;;5034454;28;20537;-87
2023/01/28 13:43:39;;;;;;;1.83;1.73;;;1.20;96.10;;;;;;5035361;28;20430;-87
2023/01/28 13:46:24;;;;;;;1.53;1.43;;;1.10;96.10;;;;;;5033754;28;20199;-87
2023/01/28 13:48:53;;;;;;;1.30;1.00;;;1.10;96.20;;;;;;5035444;28;20411;-86
2023/01/28 13:51:23;;;;;;;1.00;0.90;;;1.10;96.40;;;;;;5035379;28;20505;-86
2023/01/28 13:53:56;;;;;;;6.37;2.57;;;1.20;96.60;;;;;;5035875;28;20449;-87
2023/01/28 13:56:26;;;;;;;2.37;2.17;;;1.20;96.40;;;;;;5052919;28;20442;-87
2023/01/28 13:59:26;;;;;;;1.50;1.40;;;1.20;96.40;;;;;;5044565;28;20414;-88
2023/01/28 14:02:22;;;;;;;1.23;1.20;;;1.20;96.60;;;;;;5043577;28;20449;-86
2023/01/28 14:04:55;;;;;;;2.30;1.97;;;1.30;96.70;;;;;;5056085;28;20406;-86
2023/01/28 14:07:42;;;;;;;12.67;2.03;;;1.30;97.00;;;;;;5059822;28;20414;-87
2023/01/28 14:10:30;;;;;;;1.20;1.10;;;1.30;96.50;;;;;;5043122;28;20450;-85
2023/01/28 14:13:20;;;;;;;13.73;1.40;;;1.40;96.00;;;;;;5036407;28;20410;-86
2023/01/28 14:16:17;;;;;;;1.63;1.53;;;1.40;95.70;;;;;;5036195;28;20462;-86
2023/01/28 14:18:44;;;;;;;1.30;1.20;;;1.40;95.90;;;;;;5016526;28;20482;-87